Time;durP1;ratioP1;P1;durP2;ratioP2;P2;SDS_P1;SDS_P2;PMS_P1;PMS_P2;Temp;Humidity;BMP_temperature;BMP_pressure;BME280_temperature;BME280_humidity;BME280_pressure;Samples;Min_cycle;Max_cycle;Signal;HPM_P1;HPM_P2
2023/08/23 00:01:25;;;;;;;3.20;2.37;;;14.70;99.90;14.00;100623;;;;589505;240;24073;-77
2023/08/23 00:03:52;;;;;;;5.50;1.67;;;14.70;99.90;14.10;100617;;;;589824;240;25258;-79
2023/08/23 00:06:20;;;;;;;2.93;2.30;;;14.70;99.90;14.10;100622;;;;589867;240;24063;-79
2023/08/23 00:08:48;;;;;;;2.87;2.10;;;14.80;99.90;14.10;100617;;;;589288;240;24047;-82
2023/08/23 00:11:16;;;;;;;6.73;2.37;;;14.70;99.90;14.10;100617;;;;589414;240;24031;-80
2023/08/23 00:13:44;;;;;;;5.97;2.33;;;14.80;99.90;14.10;100622;;;;589390;240;24019;-78
2023/08/23 00:16:12;;;;;;;3.90;2.20;;;14.80;99.90;14.00;100619;;;;589222;240;24048;-78
2023/08/23 00:18:40;;;;;;;2.17;1.97;;;14.70;99.90;14.00;100620;;;;589743;240;24063;-80
2023/08/23 00:21:08;;;;;;;3.43;2.27;;;14.70;99.90;14.00;100622;;;;589717;240;24032;-77
2023/08/23 00:23:36;;;;;;;4.00;2.50;;;14.70;99.90;14.00;100619;;;;590001;238;24086;-77
2023/08/23 00:26:04;;;;;;;4.63;1.90;;;14.70;99.90;13.90;100620;;;;591052;239;24031;-78
2023/08/23 00:28:32;;;;;;;2.30;2.10;;;14.60;99.90;13.90;100625;;;;590780;240;24022;-81
2023/08/23 00:30:59;;;;;;;3.90;2.23;;;14.60;99.90;13.90;100634;;;;590549;240;24038;-80
2023/08/23 00:33:27;;;;;;;2.00;1.90;;;14.60;99.90;13.90;100624;;;;590360;240;24068;-80
2023/08/23 00:35:55;;;;;;;4.10;2.47;;;14.60;99.90;13.80;100625;;;;590561;240;24021;-79
2023/08/23 00:38:23;;;;;;;3.67;1.77;;;14.50;99.90;13.80;100619;;;;591602;240;24040;-76
2023/08/23 00:40:51;;;;;;;4.90;2.87;;;14.50;99.90;13.70;100619;;;;586516;240;45876;-79
2023/08/23 00:43:19;;;;;;;4.43;3.07;;;14.40;99.90;13.70;100617;;;;591466;237;24122;-82
2023/08/23 00:45:47;;;;;;;2.47;2.23;;;14.30;99.90;13.60;100610;;;;589752;240;24066;-81
2023/08/23 00:48:15;;;;;;;3.07;2.10;;;14.30;99.90;13.50;100618;;;;590043;240;24078;-81
2023/08/23 00:50:45;;;;;;;3.10;2.00;;;14.20;99.90;13.50;100609;;;;590008;240;24032;-81
2023/08/23 00:53:12;;;;;;;3.90;2.30;;;14.20;99.90;13.50;100607;;;;587333;240;24029;-79
2023/08/23 00:55:41;;;;;;;4.43;2.00;;;14.20;99.90;13.50;100613;;;;589971;240;24059;-81
2023/08/23 00:58:12;;;;;;;2.27;2.03;;;14.20;99.90;13.50;100602;;;;599711;233;24057;-83
2023/08/23 01:00:37;;;;;;;4.37;2.47;;;14.20;99.90;13.50;100608;;;;589588;240;24039;-78
2023/08/23 01:03:05;;;;;;;2.60;2.40;;;14.20;99.90;13.50;100601;;;;589145;240;24044;-77
2023/08/23 01:05:48;;;;;;;3.47;2.47;;;14.20;99.90;13.40;100605;;;;586716;240;24093;-78
2023/08/23 01:08:43;;;;;;;3.97;2.57;;;14.10;99.90;13.40;100608;;;;589112;240;24047;-78
2023/08/23 01:11:41;;;;;;;5.50;2.10;;;14.10;99.90;13.40;100604;;;;589403;240;24068;-77
2023/08/23 01:14:14;;;;;;;3.67;2.30;;;14.10;99.90;13.30;100613;;;;589565;240;24087;-78
2023/08/23 01:16:42;;;;;;;2.80;2.47;;;14.00;99.90;13.20;100610;;;;589075;240;24044;-79
2023/08/23 01:19:30;;;;;;;4.00;2.20;;;13.90;99.90;13.20;100610;;;;589670;240;24018;-78
2023/08/23 01:21:58;;;;;;;5.90;2.60;;;13.80;99.90;13.10;100608;;;;589615;240;24026;-77
2023/08/23 01:24:26;;;;;;;6.80;2.67;;;13.80;99.90;13.10;100608;;;;587007;240;24089;-77
2023/08/23 01:26:54;;;;;;;3.10;2.50;;;13.70;99.90;13.00;100607;;;;598826;240;24045;-77
2023/08/23 01:29:21;;;;;;;9.23;2.80;;;13.70;99.90;13.00;100617;;;;589657;240;24079;-78
2023/08/23 01:31:49;;;;;;;2.47;2.27;;;13.70;99.90;12.90;100615;;;;589678;240;24017;-77
2023/08/23 01:34:26;;;;;;;6.07;2.60;;;13.60;99.90;12.90;100617;;;;598663;239;24043;-77
2023/08/23 01:36:54;;;;;;;4.20;2.23;;;13.60;99.90;12.90;100617;;;;590995;239;24035;-77
2023/08/23 01:39:22;;;;;;;5.47;2.70;;;13.60;99.90;12.90;100623;;;;600116;236;24091;-77
2023/08/23 01:41:53;;;;;;;4.03;2.43;;;13.60;99.90;12.90;100620;;;;590479;240;24020;-79
2023/08/23 01:44:18;;;;;;;5.40;2.60;;;13.50;99.90;12.80;100622;;;;590059;240;25114;-76
2023/08/23 01:46:46;;;;;;;3.23;2.00;;;13.50;99.90;12.80;100617;;;;589783;240;24028;-76
2023/08/23 01:49:14;;;;;;;4.27;2.73;;;13.50;99.90;12.80;100614;;;;590267;240;25096;-75
2023/08/23 01:51:43;;;;;;;7.33;2.40;;;13.50;99.90;12.80;100617;;;;590312;240;24090;-75
2023/08/23 01:54:12;;;;;;;4.53;3.35;;;13.50;99.90;12.80;100612;;;;584968;240;34914;-77
2023/08/23 01:56:40;;;;;;;3.47;2.67;;;13.50;99.90;12.80;100620;;;;587703;240;24038;-76
2023/08/23 01:59:08;;;;;;;5.37;2.50;;;13.50;99.90;12.80;100613;;;;589559;240;24023;-76
2023/08/23 02:01:36;;;;;;;4.53;2.40;;;13.50;99.90;12.80;100630;;;;589905;240;24025;-76
2023/08/23 02:04:03;;;;;;;4.27;2.00;;;13.50;99.90;12.70;100631;;;;589931;240;24044;-78
2023/08/23 02:06:31;;;;;;;4.03;2.47;;;13.40;99.90;12.70;100628;;;;589912;240;24050;-77
2023/08/23 02:08:59;;;;;;;3.80;2.37;;;13.40;99.90;12.70;100625;;;;589979;240;24016;-78
2023/08/23 02:11:27;;;;;;;2.53;2.27;;;13.40;99.90;12.70;100628;;;;589869;240;24030;-78
2023/08/23 02:13:56;;;;;;;9.13;2.50;;;13.40;99.90;12.70;100630;;;;589696;240;24025;-77
2023/08/23 02:16:28;;;;;;;5.23;2.20;;;13.40;99.90;12.70;100636;;;;589737;240;24040;-78
2023/08/23 02:18:53;;;;;;;9.03;2.67;;;13.40;99.90;12.70;100633;;;;589407;240;24050;-79
2023/08/23 02:21:24;;;;;;;4.30;2.57;;;13.40;99.90;12.70;100631;;;;589260;240;24045;-78
2023/08/23 02:23:52;;;;;;;6.97;2.47;;;13.40;99.90;12.70;100633;;;;598664;237;24039;-79
2023/08/23 02:26:17;;;;;;;4.70;2.53;;;13.40;99.90;12.70;100631;;;;588819;240;24080;-78
2023/08/23 02:28:45;;;;;;;6.17;2.70;;;13.40;99.90;12.70;100635;;;;586701;240;24085;-79
2023/08/23 02:31:13;;;;;;;4.30;2.43;;;13.40;99.90;12.70;100624;;;;589369;240;24073;-80
2023/08/23 02:33:41;;;;;;;6.20;2.27;;;13.40;99.90;12.70;100631;;;;589315;240;24105;-78
2023/08/23 02:36:09;;;;;;;4.93;2.67;;;13.40;99.90;12.70;100630;;;;589397;240;24012;-79
2023/08/23 02:38:37;;;;;;;3.37;2.53;;;13.40;99.90;12.70;100625;;;;589253;240;24042;-81
2023/08/23 02:41:05;;;;;;;3.17;2.60;;;13.40;99.90;12.70;100627;;;;589243;240;24108;-79
2023/08/23 02:43:32;;;;;;;2.60;2.40;;;13.40;99.90;12.70;100631;;;;589378;240;24072;-79
2023/08/23 02:46:00;;;;;;;3.27;2.97;;;13.40;99.90;12.70;100622;;;;589293;240;24092;-77
2023/08/23 02:48:29;;;;;;;4.97;2.07;;;13.40;99.90;12.70;100626;;;;591097;239;24023;-80
2023/08/23 02:50:59;;;;;;;4.27;2.77;;;13.40;99.90;12.70;100624;;;;591167;239;24027;-78
2023/08/23 02:53:24;;;;;;;5.53;2.60;;;13.40;99.90;12.70;100622;;;;594730;236;24077;-83
2023/08/23 02:55:52;;;;;;;3.90;2.07;;;13.40;99.90;12.70;100629;;;;590546;240;24039;-79
2023/08/23 02:58:20;;;;;;;2.73;2.43;;;13.40;99.90;12.70;100626;;;;590068;240;24024;-81
2023/08/23 03:00:48;;;;;;;4.30;2.77;;;13.40;99.90;12.70;100634;;;;590222;240;24048;-79
2023/08/23 03:03:16;;;;;;;2.97;2.67;;;13.40;99.90;12.70;100627;;;;590278;240;24027;-82
2023/08/23 03:05:54;;;;;;;5.87;2.60;;;13.40;99.90;12.70;100618;;;;590353;240;24152;-77
2023/08/23 03:08:24;;;;;;;3.97;2.40;;;13.50;99.90;12.80;100614;;;;590390;240;24024;-82
2023/08/23 03:10:53;;;;;;;3.60;2.50;;;13.50;99.90;12.80;100609;;;;589503;240;24028;-81
2023/08/23 03:13:19;;;;;;;3.67;2.30;;;13.50;99.90;12.80;100618;;;;589759;240;24032;-81
2023/08/23 03:15:47;;;;;;;4.10;2.30;;;13.50;99.90;12.80;100616;;;;590126;240;24036;-82
2023/08/23 03:18:15;;;;;;;4.47;2.60;;;13.50;99.90;12.90;100618;;;;588918;240;24058;-77
2023/08/23 03:20:43;;;;;;;5.53;2.50;;;13.60;99.90;12.90;100619;;;;589581;240;24025;-82
2023/08/23 03:23:11;;;;;;;3.47;1.90;;;13.60;99.90;12.90;100622;;;;589683;240;24023;-80
2023/08/23 03:25:38;;;;;;;5.93;2.70;;;13.60;99.90;12.90;100625;;;;589473;240;24026;-83
2023/08/23 03:28:06;;;;;;;6.80;2.03;;;13.60;99.90;12.90;100623;;;;589836;240;24021;-82
2023/08/23 03:30:34;;;;;;;8.30;2.60;;;13.60;99.90;12.90;100623;;;;589453;240;24035;-84
2023/08/23 03:33:06;;;;;;;2.63;2.43;;;13.60;99.90;12.90;100627;;;;589248;240;24042;-83
2023/08/23 03:35:31;;;;;;;4.97;2.43;;;13.60;99.90;12.90;100623;;;;586507;240;24072;-83
2023/08/23 03:37:59;;;;;;;4.40;2.27;;;13.60;99.90;12.90;100625;;;;589396;240;24023;-81
2023/08/23 03:40:27;;;;;;;2.93;2.40;;;13.60;99.90;12.90;100621;;;;589441;240;24030;-78
2023/08/23 03:42:55;;;;;;;2.97;2.47;;;13.60;99.90;12.90;100622;;;;589545;240;24035;-80
2023/08/23 03:45:23;;;;;;;3.10;2.33;;;13.60;99.90;12.90;100618;;;;589515;240;24056;-80
2023/08/23 03:47:50;;;;;;;3.70;2.60;;;13.60;99.90;12.90;100620;;;;590103;240;24020;-81
2023/08/23 03:50:18;;;;;;;6.53;2.63;;;13.60;99.90;12.90;100613;;;;589546;240;24039;-80
2023/08/23 03:52:46;;;;;;;3.00;2.70;;;13.60;99.90;12.90;100610;;;;589588;240;24059;-79
2023/08/23 03:55:14;;;;;;;2.47;2.30;;;13.60;99.90;13.00;100621;;;;589491;240;24015;-81
2023/08/23 03:57:42;;;;;;;5.43;2.60;;;13.60;99.90;13.00;100620;;;;589827;240;24043;-81
2023/08/23 04:00:10;;;;;;;3.67;2.20;;;13.70;99.90;13.10;100616;;;;590941;239;24116;-80
2023/08/23 04:02:43;;;;;;;5.53;2.67;;;13.80;99.90;13.10;100615;;;;587707;239;24009;-78
2023/08/23 04:05:11;;;;;;;6.13;2.80;;;13.80;99.90;13.10;100618;;;;599264;239;24032;-79
2023/08/23 04:07:36;;;;;;;3.80;2.60;;;13.90;99.90;13.20;100622;;;;590042;240;24093;-79
2023/08/23 04:10:04;;;;;;;6.47;3.10;;;13.80;99.90;13.30;100619;;;;589919;240;24037;-80
2023/08/23 04:12:32;;;;;;;2.43;2.23;;;13.90;99.90;13.30;100615;;;;587286;240;24032;-77
2023/08/23 04:15:00;;;;;;;5.03;2.40;;;14.00;99.90;13.40;100619;;;;589755;240;24160;-77
2023/08/23 04:17:28;;;;;;;3.67;2.60;;;14.00;99.90;13.40;100615;;;;589762;240;24054;-79
2023/08/23 04:19:56;;;;;;;5.77;3.00;;;14.10;99.90;13.50;100610;;;;589932;240;24064;-82
2023/08/23 04:22:25;;;;;;;5.80;2.67;;;14.10;99.90;13.50;100614;;;;589750;240;24091;-81
2023/08/23 04:24:53;;;;;;;6.27;2.80;;;14.20;99.90;13.50;100621;;;;589468;240;24046;-80
2023/08/23 04:27:22;;;;;;;4.73;2.37;;;14.20;99.90;13.60;100610;;;;589718;240;24021;-83
2023/08/23 04:29:50;;;;;;;3.87;2.60;;;14.20;99.90;13.70;100614;;;;589528;240;24061;-81
2023/08/23 04:32:18;;;;;;;3.97;2.57;;;14.30;99.90;13.80;100617;;;;589493;240;24095;-82
2023/08/23 04:34:46;;;;;;;8.37;2.80;;;14.40;99.90;13.90;100619;;;;589507;240;24032;-82
2023/08/23 04:37:13;;;;;;;6.47;2.17;;;14.50;99.90;14.00;100615;;;;589294;240;24130;-82
2023/08/23 04:39:41;;;;;;;4.20;2.10;;;14.60;99.90;14.20;100613;;;;589420;240;24031;-82
2023/08/23 04:42:09;;;;;;;3.07;2.57;;;14.70;99.90;15.00;100616;;;;589311;240;24122;-82
2023/08/23 04:44:37;;;;;;;7.87;2.90;;;15.50;99.90;16.40;100616;;;;589168;240;24062;-81
2023/08/23 04:47:06;;;;;;;4.50;2.43;;;18.50;99.90;18.00;100620;;;;589345;240;24030;-82
2023/08/23 04:49:35;;;;;;;2.90;2.17;;;20.00;99.90;19.40;100620;;;;589634;240;24048;-78
2023/08/23 04:52:02;;;;;;;4.00;2.27;;;20.00;99.90;20.70;100628;;;;589358;240;23061;-78
2023/08/23 04:54:30;;;;;;;5.23;2.10;;;21.30;99.90;21.80;100624;;;;589235;240;24071;-77
2023/08/23 04:56:58;;;;;;;7.23;2.63;;;22.50;99.90;22.90;100623;;;;589369;240;24032;-78
2023/08/23 04:59:26;;;;;;;6.63;2.53;;;23.60;99.90;23.70;100622;;;;589332;240;24046;-78
2023/08/23 05:01:54;;;;;;;1.90;1.80;;;24.50;99.90;24.70;100626;;;;589284;240;23051;-79
2023/08/23 05:04:23;;;;;;;2.27;1.53;;;25.40;99.90;25.50;100620;;;;589374;240;23046;-79
2023/08/23 05:06:50;;;;;;;3.83;1.80;;;26.10;99.90;26.00;100620;;;;589218;240;23060;-79
2023/08/23 05:09:21;;;;;;;3.37;2.23;;;27.40;99.90;26.80;100621;;;;589351;240;23130;-78
2023/08/23 05:11:47;;;;;;;3.77;2.03;;;28.10;99.90;27.50;100619;;;;590580;239;23055;-77
2023/08/23 05:14:15;;;;;;;4.35;1.83;;;28.00;99.90;28.00;100631;;;;590313;239;23059;-79
2023/08/23 05:16:43;;;;;;;5.43;1.83;;;28.60;99.50;28.40;100633;;;;590163;240;23040;-80
2023/08/23 05:19:11;;;;;;;3.50;2.50;;;29.00;97.30;28.90;100640;;;;590467;240;23046;-81
2023/08/23 05:21:42;;;;;;;4.72;2.17;;;29.40;96.00;29.50;100649;;;;590229;240;23061;-83
2023/08/23 05:24:07;;;;;;;6.40;2.25;;;30.00;94.40;30.20;100642;;;;599094;234;23064;-83
2023/08/23 05:26:35;;;;;;;8.60;2.00;;;30.70;92.50;30.80;100639;;;;590041;238;23042;-81
2023/08/23 05:29:03;;;;;;;6.22;2.03;;;31.40;90.20;31.60;100648;;;;589748;240;23029;-80
2023/08/23 05:31:31;;;;;;;1.77;1.67;;;32.00;86.60;32.20;100655;;;;589504;240;23046;-82
2023/08/23 05:33:59;;;;;;;6.25;1.87;;;32.70;82.50;32.70;100656;;;;589655;240;24096;-83
2023/08/23 05:36:26;;;;;;;3.30;2.05;;;33.20;79.60;33.10;100663;;;;589562;240;23037;-82
2023/08/23 05:38:54;;;;;;;9.57;2.33;;;33.60;76.70;33.30;100673;;;;589676;240;23034;-83
2023/08/23 05:41:22;;;;;;;2.42;1.77;;;33.90;74.60;33.70;100666;;;;589741;240;24056;-83
2023/08/23 05:43:50;;;;;;;4.22;2.28;;;34.20;73.00;34.00;100677;;;;589574;240;23048;-81
2023/08/23 05:46:19;;;;;;;7.07;2.05;;;35.10;70.10;34.70;100678;;;;589614;240;24111;-79
2023/08/23 05:48:47;;;;;;;3.05;1.73;;;35.10;69.20;35.30;100681;;;;589718;240;23038;-79
2023/08/23 05:51:15;;;;;;;3.33;1.85;;;35.60;66.10;35.60;100681;;;;589754;240;24075;-79
2023/08/23 05:53:43;;;;;;;3.90;2.00;;;36.00;64.70;35.80;100689;;;;589599;240;24078;-82
2023/08/23 05:56:11;;;;;;;6.53;1.83;;;36.30;63.60;36.40;100681;;;;589504;240;23041;-84
2023/08/23 05:58:38;;;;;;;4.70;1.60;;;36.70;62.50;36.90;100676;;;;589291;240;23105;-81
2023/08/23 06:01:06;;;;;;;3.12;1.65;;;37.20;61.10;37.40;100680;;;;589322;240;23084;-83
2023/08/23 06:03:34;;;;;;;10.93;1.90;;;37.80;59.70;37.90;100680;;;;589713;240;23049;-80
2023/08/23 06:06:02;;;;;;;6.87;1.98;;;38.30;58.50;38.50;100681;;;;589920;240;23031;-80
2023/08/23 06:08:33;;;;;;;3.22;1.90;;;38.80;57.60;39.00;100682;;;;590008;240;23057;-80
2023/08/23 06:10:59;;;;;;;3.78;1.77;;;39.70;55.10;39.40;100695;;;;589297;240;23075;-82
2023/08/23 06:13:27;;;;;;;15.40;3.03;;;40.10;54.40;39.70;100692;;;;590016;240;23049;-81
2023/08/23 06:15:56;;;;;;;7.50;1.62;;;40.40;53.10;40.00;100700;;;;589335;240;23036;-80
2023/08/23 06:18:24;;;;;;;5.25;1.70;;;40.30;53.10;40.50;100693;;;;589240;240;23033;-81
2023/08/23 06:20:52;;;;;;;5.15;1.92;;;40.80;52.50;40.70;100701;;;;589692;240;24060;-79
2023/08/23 06:23:20;;;;;;;5.97;2.03;;;41.00;51.70;41.20;100701;;;;600449;237;23036;-79
2023/08/23 06:25:48;;;;;;;13.70;2.72;;;41.50;51.30;41.50;100698;;;;590479;239;23107;-79
2023/08/23 06:28:16;;;;;;;2.10;1.83;;;41.70;50.40;41.80;100704;;;;590158;240;23072;-80
2023/08/23 06:30:44;;;;;;;4.53;1.85;;;42.00;49.70;42.30;100701;;;;589985;240;23047;-80
2023/08/23 06:33:12;;;;;;;2.30;1.90;;;42.40;49.00;42.90;100700;;;;589891;240;23025;-79
2023/08/23 06:35:39;;;;;;;5.07;2.15;;;43.00;48.10;43.20;100705;;;;589819;240;24147;-81
2023/08/23 06:38:07;;;;;;;3.70;2.00;;;43.40;47.40;43.60;100705;;;;589963;240;23037;-80
2023/08/23 06:40:35;;;;;;;4.90;2.28;;;43.80;46.90;44.10;100704;;;;589730;240;24085;-80
2023/08/23 06:43:04;;;;;;;2.50;1.80;;;44.30;45.10;44.10;100703;;;;589733;240;23054;-79
2023/08/23 06:45:33;;;;;;;11.68;2.45;;;44.60;45.50;44.40;100710;;;;589579;240;24101;-80
2023/08/23 06:48:01;;;;;;;9.15;1.90;;;44.50;44.90;44.60;100703;;;;589471;240;23042;-80
2023/08/23 06:50:28;;;;;;;8.63;2.20;;;44.80;44.50;44.90;100698;;;;590076;240;23057;-79
2023/08/23 06:52:56;;;;;;;4.43;1.90;;;45.00;44.40;45.30;100699;;;;589990;240;23038;-81
2023/08/23 06:55:25;;;;;;;3.67;1.75;;;45.30;44.00;45.40;100693;;;;589716;240;23034;-81
2023/08/23 06:57:52;;;;;;;1.65;1.55;;;45.50;43.40;45.70;100697;;;;589517;240;23037;-81
2023/08/23 07:00:20;;;;;;;4.65;1.40;;;45.70;43.10;46.10;100696;;;;588526;240;23093;-80
2023/08/23 07:02:49;;;;;;;8.60;1.80;;;46.00;42.50;46.30;100698;;;;579497;242;23081;-77
2023/08/23 07:05:17;;;;;;;9.55;2.53;;;46.40;41.10;46.30;100698;;;;575382;242;24191;-78
2023/08/23 07:07:45;;;;;;;6.30;2.00;;;46.40;41.30;46.30;100697;;;;563889;246;23165;-78
2023/08/23 07:10:13;;;;;;;7.03;1.67;;;46.40;41.30;46.50;100701;;;;572443;246;23203;-78
2023/08/23 07:12:41;;;;;;;6.65;2.28;;;46.40;41.00;46.50;100702;;;;578353;242;23213;-77
2023/08/23 07:15:13;;;;;;;4.03;1.80;;;46.40;40.90;46.40;100701;;;;568156;247;23092;-78
2023/08/23 07:17:38;;;;;;;4.15;1.95;;;46.40;40.80;46.80;100710;;;;579669;242;23087;-78
2023/08/23 07:20:05;;;;;;;6.62;2.30;;;46.60;41.20;47.20;100714;;;;565433;245;35227;-77
2023/08/23 07:22:33;;;;;;;7.30;2.83;;;47.00;40.10;47.30;100718;;;;576299;242;23116;-78
2023/08/23 07:25:01;;;;;;;5.12;1.90;;;47.10;39.70;47.40;100722;;;;577393;242;23053;-78
2023/08/23 07:27:29;;;;;;;2.65;1.40;;;47.30;39.70;47.60;100719;;;;577306;242;23074;-78
2023/08/23 07:29:58;;;;;;;18.15;2.83;;;47.50;39.70;47.80;100725;;;;576992;242;23095;-78
2023/08/23 07:32:25;;;;;;;11.77;2.25;;;47.60;39.20;47.90;100721;;;;573172;242;23114;-77
2023/08/23 07:34:53;;;;;;;9.93;1.77;;;47.70;38.40;48.20;100722;;;;579282;245;23058;-77
2023/08/23 07:37:21;;;;;;;7.30;1.90;;;48.00;38.70;48.40;100722;;;;575567;241;23129;-78
2023/08/23 07:39:48;;;;;;;12.45;1.95;;;48.30;37.90;48.60;100730;;;;574846;242;23073;-78
2023/08/23 07:42:16;;;;;;;6.85;1.98;;;48.50;37.80;48.90;100725;;;;574472;242;23152;-79
2023/08/23 07:44:44;;;;;;;5.57;1.92;;;48.70;37.50;49.20;100730;;;;578023;241;23144;-80
2023/08/23 07:47:12;;;;;;;2.20;1.40;;;49.20;37.30;49.50;100727;;;;582575;241;23064;-78
2023/08/23 07:49:40;;;;;;;1.98;1.35;;;49.40;36.60;49.40;100728;;;;577213;242;23105;-81
2023/08/23 07:52:08;;;;;;;11.35;2.25;;;49.30;36.00;49.30;100727;;;;576148;242;23107;-80
2023/08/23 07:54:37;;;;;;;3.00;1.60;;;49.30;36.60;49.40;100733;;;;575020;246;23111;-80
2023/08/23 07:57:05;;;;;;;2.78;1.73;;;49.20;36.50;49.70;100734;;;;570296;247;23150;-80
2023/08/23 07:59:33;;;;;;;2.62;1.80;;;49.60;35.90;49.60;100735;;;;570473;246;23102;-82
2023/08/23 08:02:04;;;;;;;7.12;1.92;;;49.50;35.80;49.80;100735;;;;566127;246;23096;-80
2023/08/23 08:04:29;;;;;;;13.55;1.98;;;49.60;35.60;50.10;100745;;;;564489;246;23171;-82
2023/08/23 08:06:56;;;;;;;10.50;2.40;;;50.00;35.30;50.00;100745;;;;577949;242;23066;-81
2023/08/23 08:09:25;;;;;;;8.05;2.00;;;50.00;35.20;50.00;100746;;;;569109;246;35606;-80
2023/08/23 08:11:52;;;;;;;3.35;1.80;;;49.80;35.30;50.10;100747;;;;576319;242;23155;-80
2023/08/23 08:14:20;;;;;;;3.83;1.67;;;50.00;35.70;50.40;100747;;;;577787;242;23106;-80
2023/08/23 08:16:48;;;;;;;3.70;1.60;;;50.50;35.10;50.60;100739;;;;565578;247;23100;-81
2023/08/23 08:19:22;;;;;;;10.35;2.15;;;50.60;34.60;50.80;100748;;;;577438;242;23141;-80
2023/08/23 08:21:47;;;;;;;2.80;1.48;;;50.90;34.50;51.00;100742;;;;587884;241;23118;-81
2023/08/23 08:24:15;;;;;;;4.57;1.67;;;51.00;34.30;51.30;100742;;;;581501;242;23109;-81
2023/08/23 08:26:43;;;;;;;5.80;1.85;;;51.40;34.60;51.40;100746;;;;580705;242;23128;-81
2023/08/23 08:29:11;;;;;;;15.05;2.45;;;51.60;34.10;51.30;100755;;;;578825;242;23108;-80
2023/08/23 08:31:40;;;;;;;3.17;1.65;;;51.70;33.70;51.40;100753;;;;573986;242;23082;-82
2023/08/23 08:34:10;;;;;;;4.25;2.05;;;51.80;34.10;51.70;100752;;;;573308;242;23043;-80
2023/08/23 08:36:40;;;;;;;4.22;1.58;;;52.10;33.40;51.70;100745;;;;587234;242;23092;-81
2023/08/23 08:39:06;;;;;;;2.35;1.58;;;52.10;33.40;51.80;100754;;;;573369;241;23063;-81
2023/08/23 08:41:34;;;;;;;8.07;1.98;;;52.20;33.30;51.80;100761;;;;572082;241;23096;-81
2023/08/23 08:44:02;;;;;;;3.20;1.60;;;52.30;33.20;51.60;100756;;;;578454;242;23097;-80
2023/08/23 08:46:30;;;;;;;10.23;2.03;;;52.30;33.10;51.80;100762;;;;574812;241;23284;-80
2023/08/23 08:48:58;;;;;;;6.25;1.65;;;52.30;33.40;51.90;100756;;;;565728;246;23133;-80
2023/08/23 08:51:26;;;;;;;10.02;2.20;;;52.50;33.00;51.90;100748;;;;575213;241;23097;-80
2023/08/23 08:53:54;;;;;;;11.88;2.17;;;52.50;32.60;52.00;100749;;;;573992;242;24174;-81
2023/08/23 08:56:22;;;;;;;7.37;2.00;;;52.70;32.90;52.10;100756;;;;574168;246;23110;-81
2023/08/23 08:58:52;;;;;;;4.05;1.75;;;52.90;32.70;51.90;100749;;;;583117;242;23133;-80
2023/08/23 09:01:21;;;;;;;15.95;2.80;;;52.90;32.60;52.10;100753;;;;570607;246;23154;-81
2023/08/23 09:03:49;;;;;;;8.55;2.12;;;53.10;32.70;52.60;100750;;;;566050;246;23131;-83
2023/08/23 09:06:13;;;;;;;5.70;2.20;;;53.50;32.10;52.20;100756;;;;577024;242;23118;-80
2023/08/23 09:08:41;;;;;;;14.95;2.47;;;53.50;32.10;52.10;100757;;;;574096;242;23141;-82
2023/08/23 09:11:09;;;;;;;3.62;1.62;;;53.30;32.00;52.20;100753;;;;569803;246;23113;-82
2023/08/23 09:13:38;;;;;;;2.50;1.52;;;53.20;31.30;52.00;100747;;;;578274;242;23073;-81
2023/08/23 09:16:06;;;;;;;3.10;1.45;;;53.20;31.20;51.80;100745;;;;576486;242;23108;-81
2023/08/23 09:18:34;;;;;;;5.50;1.80;;;53.00;31.70;52.00;100750;;;;575645;242;23111;-81
2023/08/23 09:21:01;;;;;;;10.45;2.22;;;53.10;31.60;52.00;100757;;;;568722;246;23118;-81
2023/08/23 09:23:36;;;;;;;2.72;1.60;;;53.20;31.30;51.90;100744;;;;574803;242;23099;-81
2023/08/23 09:26:03;;;;;;;3.70;1.30;;;53.20;31.10;51.80;100751;;;;566844;247;23102;-80
2023/08/23 09:28:32;;;;;;;3.05;1.50;;;53.00;31.30;52.00;100739;;;;572017;246;23089;-81
2023/08/23 09:30:59;;;;;;;3.50;1.70;;;53.20;31.60;52.00;100745;;;;571326;246;23109;-80
2023/08/23 09:33:27;;;;;;;10.25;1.77;;;53.50;31.50;52.20;100741;;;;565797;246;23082;-79
2023/08/23 09:35:58;;;;;;;3.97;1.65;;;53.70;31.60;52.60;100743;;;;574277;242;23093;-80
2023/08/23 09:38:24;;;;;;;6.90;1.62;;;54.20;30.60;52.60;100749;;;;573061;246;23151;-81
2023/08/23 09:40:55;;;;;;;3.42;1.90;;;54.20;31.20;52.00;100745;;;;562572;245;23089;-83
2023/08/23 09:43:23;;;;;;;12.85;2.17;;;53.90;30.60;52.10;100748;;;;585387;239;23088;-82
2023/08/23 09:45:48;;;;;;;9.40;2.35;;;53.80;31.00;52.10;100742;;;;584119;242;23118;-82
2023/08/23 09:48:17;;;;;;;8.48;1.87;;;53.90;31.20;52.30;100745;;;;563970;245;23140;-83
2023/08/23 09:50:46;;;;;;;3.58;1.85;;;54.00;30.90;52.30;100744;;;;581955;242;23096;-81
2023/08/23 09:53:20;;;;;;;12.30;2.40;;;54.10;30.60;52.80;100751;;;;580129;242;23114;-79
2023/08/23 09:55:48;;;;;;;4.07;1.50;;;54.60;30.80;52.40;100743;;;;575706;242;26310;-80
2023/08/23 09:58:16;;;;;;;7.03;1.83;;;54.40;30.40;52.60;100759;;;;580214;241;23121;-80
2023/08/23 10:00:44;;;;;;;1.65;1.33;;;54.40;30.10;52.20;100753;;;;577608;241;23183;-80
2023/08/23 10:03:12;;;;;;;4.60;1.70;;;54.40;30.20;52.30;100752;;;;580314;241;23161;-81
2023/08/23 10:05:40;;;;;;;2.78;1.45;;;54.30;30.10;51.30;100760;;;;579448;242;23133;-81
2023/08/23 10:08:08;;;;;;;3.05;1.75;;;53.60;30.20;48.60;100752;;;;577119;242;23111;-80
2023/08/23 10:10:35;;;;;;;2.65;1.42;;;51.40;31.00;45.90;100762;;;;587016;241;23103;-80
2023/08/23 10:13:04;;;;;;;23.30;3.25;;;48.70;32.60;43.60;100761;;;;577312;242;23115;-81
2023/08/23 10:15:37;;;;;;;12.73;3.58;;;46.10;34.00;41.30;100764;;;;579773;242;23063;-82
2023/08/23 10:18:05;;;;;;;1.23;1.05;;;43.80;35.70;39.90;100761;;;;581236;242;23100;-78
2023/08/23 10:20:36;;;;;;;2.97;1.15;;;41.90;37.50;38.90;100751;;;;583568;241;23130;-80
2023/08/23 10:23:13;;;;;;;4.68;1.23;;;40.40;38.80;38.20;100756;;;;590927;242;23074;-81
2023/08/23 10:25:41;;;;;;;2.00;1.37;;;39.40;41.10;37.50;100750;;;;584741;242;23043;-81
2023/08/23 10:28:11;;;;;;;4.20;1.10;;;38.60;42.50;36.90;100748;;;;576583;245;23064;-79
2023/08/23 10:30:45;;;;;;;2.92;1.10;;;37.80;43.20;36.10;100746;;;;576702;242;23100;-79
2023/08/23 10:33:10;;;;;;;2.08;0.88;;;37.00;43.50;35.10;100752;;;;573155;242;23050;-81
2023/08/23 10:35:41;;;;;;;12.13;1.92;;;36.00;44.50;34.40;100745;;;;578562;242;24176;-78
2023/08/23 10:38:09;;;;;;;5.35;1.75;;;35.10;46.00;33.70;100738;;;;574889;242;25266;-81
2023/08/23 10:40:33;;;;;;;20.67;2.20;;;34.30;46.40;33.00;100743;;;;577376;242;23121;-80
2023/08/23 10:43:04;;;;;;;1.45;1.30;;;33.40;47.40;32.30;100743;;;;585896;238;23049;-80
2023/08/23 10:45:56;;;;;;;4.72;1.52;;;32.00;50.80;31.80;100729;;;;579934;242;24081;-78
2023/08/23 10:48:25;;;;;;;1.98;1.05;;;31.90;50.10;31.60;100726;;;;579536;242;24043;-77
2023/08/23 10:50:53;;;;;;;1.75;0.90;;;31.60;50.90;31.40;100732;;;;575922;242;23085;-77
2023/08/23 10:53:18;;;;;;;2.08;1.67;;;31.50;51.20;31.20;100729;;;;577521;242;23122;-79
2023/08/23 10:55:46;;;;;;;1.20;0.90;;;31.30;51.80;31.00;100729;;;;585724;241;23124;-79
2023/08/23 10:58:14;;;;;;;2.37;1.15;;;31.10;51.50;30.90;100729;;;;587082;242;23146;-78
2023/08/23 11:00:42;;;;;;;2.95;0.90;;;31.00;52.10;30.80;100719;;;;573287;242;23150;-79
2023/08/23 11:03:09;;;;;;;2.97;1.08;;;31.00;51.90;30.70;100716;;;;577197;242;23123;-81
2023/08/23 11:05:38;;;;;;;4.55;1.00;;;30.90;52.00;30.60;100718;;;;577448;242;23107;-78
2023/08/23 11:08:05;;;;;;;0.85;0.77;;;30.80;52.30;30.20;100720;;;;577515;241;23112;-81
2023/08/23 11:10:34;;;;;;;5.93;2.30;;;30.20;52.70;29.90;100720;;;;584985;241;23074;-80
2023/08/23 11:13:03;;;;;;;16.80;8.25;;;29.80;53.40;29.50;100713;;;;579646;241;24118;-77
2023/08/23 11:15:35;;;;;;;5.87;3.37;;;29.60;54.40;29.30;100712;;;;577653;241;23083;-78